IST,Max TemperatureF,Mean TemperatureF,Min TemperatureF,Max Dew PointF,MeanDew PointF,Min DewpointF,Max Humidity, Mean Humidity, Min Humidity, Max Sea Level PressureIn, Mean Sea Level PressureIn, Min Sea Level PressureIn, Max VisibilityMiles, Mean VisibilityMiles, Min VisibilityMiles, Max Wind SpeedMPH, Mean Wind SpeedMPH, Max Gust SpeedMPH,PrecipitationIn, CloudCover, Events, WindDirDegrees
2013-1-1,59,49,39,54,45,39,100,95,67,30.04,29.95,29.89,1,0,0,7,4,,0.00,2,Fog,302
2013-1-2,48,45,42,48,44,43,100,100,100,30.06,30.01,29.95,1,0,0,10,4,,0.00,1,Fog,277
2013-1-3,50,44,39,50,44,39,100,99,87,30.12,30.04,30.01,1,1,0,8,6,,0.00,2,Fog,299
2013-1-4,55,46,37,48,41,37,100,92,63,30.09,30.03,29.98,1,0,0,8,4,,0.00,3,Fog,289
2013-1-5,51,43,35,48,42,36,100,97,76,30.04,29.98,29.95,1,1,0,8,5,,0.00,1,Fog,295
2013-1-6,50,44,39,48,43,39,100,98,82,30.12,30.04,30.01,1,1,0,8,4,,0.00,0,Fog,309
2013-1-7,51,42,33,48,40,34,100,95,67,30.15,30.06,30.01,1,0,0,9,5,,0.00,,Fog,273
2013-1-8,57,47,37,45,39,36,100,86,44,30.09,30.05,30.01,2,1,0,12,7,,0.00,,Fog,267
2013-1-9,68,52,35,50,40,32,100,75,26,30.09,30.04,29.98,4,1,0,14,6,,0.00,,Fog,267
2013-1-10,68,54,41,45,41,37,100,64,33,30.04,29.98,29.95,2,2,0,16,8,21,0.00,1,Fog,274
2013-1-11,69,55,41,50,44,41,100,68,35,30.06,29.99,29.95,3,2,1,14,6,,0.00,,Fog,265
2013-1-12,75,60,44,55,48,45,100,70,34,30.06,29.99,29.92,2,1,0,9,3,,0.00,2,Fog,118
2013-1-13,69,60,51,61,57,52,100,87,64,29.98,29.92,29.89,1,1,0,12,6,,0.00,1,Fog,228
2013-1-14,66,58,48,64,54,48,100,98,83,30.04,29.97,29.92,1,0,0,8,4,,0.00,3,Fog,263
2013-1-15,69,56,42,59,49,43,100,83,43,30.04,29.98,29.95,2,1,0,9,2,,0.00,3,Fog,111
2013-1-16,73,62,51,63,56,50,100,84,46,30.09,30.02,29.98,1,1,0,10,4,,0.00,3,Fog,112
2013-1-17,66,62,59,66,61,54,100,98,82,30.06,29.99,29.95,2,1,0,12,6,,0.00,3,Fog-Rain,28
2013-1-18,60,56,51,61,56,52,100,100,100,30.09,29.95,29.86,3,2,1,14,6,,0.00,5,Rain-Thunderstorm,269
2013-1-19,64,55,46,59,49,41,100,88,45,30.18,30.13,30.09,3,1,0,14,3,,0.00,3,Fog,288
2013-1-20,62,52,42,52,47,43,100,86,48,30.15,30.10,30.06,3,1,0,13,5,,0.00,,Fog,280
2013-1-21,66,54,41,50,45,37,100,82,37,30.21,30.12,30.09,3,1,0,10,5,,0.00,2,Fog,260
2013-1-22,64,52,41,50,44,39,100,79,40,30.21,30.13,30.09,3,1,0,8,3,,0.00,1,Fog,256
2013-1-23,66,54,41,52,45,36,100,78,32,30.18,30.12,30.06,2,1,0,9,2,,0.00,,Fog,283
2013-1-24,66,54,42,52,46,41,100,81,40,30.18,30.11,30.06,2,1,0,10,3,,0.00,,Fog,268
2013-1-25,68,55,42,50,45,37,100,78,33,30.15,30.10,30.06,3,1,0,13,5,,0.00,,Fog,263
2013-1-26,68,54,41,52,45,39,100,74,35,30.15,30.08,30.06,2,1,0,13,4,,0.00,,Fog,268
2013-1-27,69,56,44,52,46,39,100,76,35,30.12,30.06,30.04,2,2,1,13,3,,0.00,3,Fog,272
2013-1-28,69,56,44,50,45,37,100,71,31,30.09,30.05,30.01,3,1,0,8,1,,0.00,3,Fog,269
2013-1-29,71,58,46,52,47,41,100,74,35,30.04,30.01,29.98,2,1,0,10,2,,0.00,1,Fog,301
2013-1-30,73,60,46,57,50,43,100,76,33,30.09,30.04,30.01,1,1,0,7,2,,0.00,3,Fog,323
2013-1-31,69,60,50,57,52,48,100,85,46,30.12,30.06,30.01,1,0,0,8,1,,0.00,3,Fog,286